Terminal Aerodrome Forecast
Issued by NWS

Home | Current Version | Previous Version | Text Only | Print | Product List | Glossary On
Versions: 1 2 3 4 5 6 7 8 9 10 11 12 13 14 15 16 17 18 19
175
FTUS43 KMQT 132320
TAFCMX
TAF
KCMX 132320Z 1400/1424 02009KT 6SM -SHSN BKN025
     FM140700 36005KT P6SM -SHSN BKN020
     FM141500 31006KT 2SM -SHSN BKN020
     FM141700 30007KT 2SM -SHSN BKN020
     FM141800 30008KT P6SM BKN020
     FM142100 30009KT P6SM BKN035=

USA.gov is the U.S. government's official web portal to all federal, state and local government web resources and services.